sensor_id;sensor_type;location;lat;lon;timestamp;pressure;altitude;pressure_sealevel;temperature;humidity
46583;BME280;32309;48.858;8.252;2023-01-29T00:00:33;101588.56;;;-0.28;71.84
46583;BME280;32309;48.858;8.252;2023-01-29T00:02:33;101597.03;;;-0.31;72.47
46583;BME280;32309;48.858;8.252;2023-01-29T00:04:34;101584.28;;;-0.31;72.60
46583;BME280;32309;48.858;8.252;2023-01-29T00:06:34;101582.56;;;-0.32;72.79
46583;BME280;32309;48.858;8.252;2023-01-29T00:08:35;101584.28;;;-0.29;72.77
46583;BME280;32309;48.858;8.252;2023-01-29T00:10:36;101591.94;;;-0.28;72.85
46583;BME280;32309;48.858;8.252;2023-01-29T00:12:37;101586.00;;;-0.28;72.76
46583;BME280;32309;48.858;8.252;2023-01-29T00:14:37;101579.19;;;-0.28;73.04
46583;BME280;32309;48.858;8.252;2023-01-29T00:16:37;101572.41;;;-0.29;72.87
46583;BME280;32309;48.858;8.252;2023-01-29T00:18:38;101572.44;;;-0.27;73.22
46583;BME280;32309;48.858;8.252;2023-01-29T00:20:41;101582.63;;;-0.29;72.97
46583;BME280;32309;48.858;8.252;2023-01-29T00:22:42;101586.00;;;-0.28;73.21
46583;BME280;32309;48.858;8.252;2023-01-29T00:24:42;101574.94;;;-0.30;73.17
46583;BME280;32309;48.858;8.252;2023-01-29T00:26:43;101575.81;;;-0.28;73.11
46583;BME280;32309;48.858;8.252;2023-01-29T00:28:43;101578.34;;;-0.28;72.80
46583;BME280;32309;48.858;8.252;2023-01-29T00:30:43;101580.91;;;-0.27;72.56
46583;BME280;32309;48.858;8.252;2023-01-29T00:32:44;101582.66;;;-0.23;72.00
46583;BME280;32309;48.858;8.252;2023-01-29T00:34:44;101581.78;;;-0.26;72.18
46583;BME280;32309;48.858;8.252;2023-01-29T00:36:45;101588.56;;;-0.28;72.12
46583;BME280;32309;48.858;8.252;2023-01-29T00:38:45;101581.72;;;-0.34;72.38
46583;BME280;32309;48.858;8.252;2023-01-29T00:40:53;101580.84;;;-0.35;72.59
46583;BME280;32309;48.858;8.252;2023-01-29T00:43:12;101571.53;;;-0.34;72.45
46583;BME280;32309;48.858;8.252;2023-01-29T00:45:31;101580.88;;;-0.33;72.37
46583;BME280;32309;48.858;8.252;2023-01-29T00:47:32;101579.16;;;-0.36;72.36
46583;BME280;32309;48.858;8.252;2023-01-29T00:49:32;101575.75;;;-0.35;72.09
46583;BME280;32309;48.858;8.252;2023-01-29T00:51:33;101574.88;;;-0.38;71.98
46583;BME280;32309;48.858;8.252;2023-01-29T00:53:34;101574.88;;;-0.38;72.16
46583;BME280;32309;48.858;8.252;2023-01-29T00:55:34;101574.84;;;-0.40;72.00
46583;BME280;32309;48.858;8.252;2023-01-29T00:57:35;101578.28;;;-0.38;71.59
46583;BME280;32309;48.858;8.252;2023-01-29T00:59:36;101580.00;;;-0.38;71.43
46583;BME280;32309;48.858;8.252;2023-01-29T01:01:36;101577.41;;;-0.40;71.76
46583;BME280;32309;48.858;8.252;2023-01-29T01:03:55;101577.44;;;-0.37;70.85
46583;BME280;32309;48.858;8.252;2023-01-29T01:06:04;101575.69;;;-0.42;70.98
46583;BME280;32309;48.858;8.252;2023-01-29T01:08:05;101583.31;;;-0.45;71.66
46583;BME280;32309;48.858;8.252;2023-01-29T01:10:27;101575.66;;;-0.47;71.53
46583;BME280;32309;48.858;8.252;2023-01-29T01:12:30;101579.09;;;-0.43;71.18
46583;BME280;32309;48.858;8.252;2023-01-29T01:14:31;101580.75;;;-0.47;71.15
46583;BME280;32309;48.858;8.252;2023-01-29T01:16:35;101586.66;;;-0.48;71.00
46583;BME280;32309;48.858;8.252;2023-01-29T01:18:35;101584.97;;;-0.49;71.10
46583;BME280;32309;48.858;8.252;2023-01-29T01:20:36;101590.06;;;-0.49;71.38
46583;BME280;32309;48.858;8.252;2023-01-29T01:22:37;101580.72;;;-0.50;71.35
46583;BME280;32309;48.858;8.252;2023-01-29T01:24:38;101586.66;;;-0.49;71.31
46583;BME280;32309;48.858;8.252;2023-01-29T01:26:38;101581.56;;;-0.51;71.06
46583;BME280;32309;48.858;8.252;2023-01-29T01:28:38;101591.75;;;-0.49;70.87
46583;BME280;32309;48.858;8.252;2023-01-29T01:30:39;101590.94;;;-0.48;70.01
46583;BME280;32309;48.858;8.252;2023-01-29T01:32:39;101585.00;;;-0.47;70.27
46583;BME280;32309;48.858;8.252;2023-01-29T01:34:40;101588.38;;;-0.48;70.35
46583;BME280;32309;48.858;8.252;2023-01-29T01:36:40;101595.13;;;-0.52;70.23
46583;BME280;32309;48.858;8.252;2023-01-29T01:38:40;101597.66;;;-0.54;70.61
46583;BME280;32309;48.858;8.252;2023-01-29T01:40:44;101598.50;;;-0.53;70.16
46583;BME280;32309;48.858;8.252;2023-01-29T01:42:48;101604.41;;;-0.56;69.78
46583;BME280;32309;48.858;8.252;2023-01-29T01:44:52;101602.69;;;-0.58;70.39
46583;BME280;32309;48.858;8.252;2023-01-29T01:46:54;101603.53;;;-0.61;70.49
46583;BME280;32309;48.858;8.252;2023-01-29T01:48:58;101601.03;;;-0.56;70.11
46583;BME280;32309;48.858;8.252;2023-01-29T01:51:04;101591.69;;;-0.57;70.27
46583;BME280;32309;48.858;8.252;2023-01-29T01:53:07;101595.06;;;-0.58;69.92
46583;BME280;32309;48.858;8.252;2023-01-29T01:55:11;101593.34;;;-0.61;70.53
46583;BME280;32309;48.858;8.252;2023-01-29T01:57:17;101590.03;;;-0.54;69.24
46583;BME280;32309;48.858;8.252;2023-01-29T01:59:23;101591.66;;;-0.59;69.63
46583;BME280;32309;48.858;8.252;2023-01-29T02:01:24;101591.66;;;-0.59;69.84
46583;BME280;32309;48.858;8.252;2023-01-29T02:03:28;101585.75;;;-0.59;69.65
46583;BME280;32309;48.858;8.252;2023-01-29T02:05:54;101580.56;;;-0.65;70.09
46583;BME280;32309;48.858;8.252;2023-01-29T02:08:18;101581.41;;;-0.63;69.92
46583;BME280;32309;48.858;8.252;2023-01-29T02:10:52;101584.81;;;-0.66;69.76
46583;BME280;32309;48.858;8.252;2023-01-29T02:12:53;101587.31;;;-0.69;70.15
46583;BME280;32309;48.858;8.252;2023-01-29T02:14:55;101592.41;;;-0.68;70.41
46583;BME280;32309;48.858;8.252;2023-01-29T02:16:56;101585.59;;;-0.70;70.26
46583;BME280;32309;48.858;8.252;2023-01-29T02:18:58;101591.50;;;-0.73;70.81
46583;BME280;32309;48.858;8.252;2023-01-29T02:30:41;101583.88;;;-0.73;70.35
46583;BME280;32309;48.858;8.252;2023-01-29T02:32:58;101598.31;;;-0.72;70.76
46583;BME280;32309;48.858;8.252;2023-01-29T02:35:10;101588.16;;;-0.70;70.58
46583;BME280;32309;48.858;8.252;2023-01-29T02:38:18;101586.47;;;-0.71;70.57
46583;BME280;32309;48.858;8.252;2023-01-29T02:40:00;101588.13;;;-0.75;70.65
46583;BME280;32309;48.858;8.252;2023-01-29T02:42:12;101584.69;;;-0.75;70.91
46583;BME280;32309;48.858;8.252;2023-01-29T02:44:37;101584.69;;;-0.75;71.07
46583;BME280;32309;48.858;8.252;2023-01-29T02:48:53;101583.06;;;-0.70;70.57
46583;BME280;32309;48.858;8.252;2023-01-29T02:50:59;101586.41;;;-0.73;70.41
46583;BME280;32309;48.858;8.252;2023-01-29T02:53:09;101581.41;;;-0.68;70.24
46583;BME280;32309;48.858;8.252;2023-01-29T02:55:16;101580.50;;;-0.73;70.29
46583;BME280;32309;48.858;8.252;2023-01-29T02:57:26;101585.56;;;-0.76;70.19
46583;BME280;32309;48.858;8.252;2023-01-29T02:59:33;101580.47;;;-0.75;70.42
46583;BME280;32309;48.858;8.252;2023-01-29T03:01:43;101583.06;;;-0.70;69.85
46583;BME280;32309;48.858;8.252;2023-01-29T03:03:48;101582.19;;;-0.72;69.87
46583;BME280;32309;48.858;8.252;2023-01-29T03:06:05;101577.91;;;-0.78;70.21
46583;BME280;32309;48.858;8.252;2023-01-29T03:08:13;101582.13;;;-0.78;70.53
46583;BME280;32309;48.858;8.252;2023-01-29T03:12:25;101580.41;;;-0.79;70.67
46583;BME280;32309;48.858;8.252;2023-01-29T03:14:34;101573.66;;;-0.79;70.92
46583;BME280;32309;48.858;8.252;2023-01-29T03:16:56;101568.56;;;-0.80;70.85
46583;BME280;32309;48.858;8.252;2023-01-29T03:19:02;101574.47;;;-0.81;70.99
46583;BME280;32309;48.858;8.252;2023-01-29T03:21:09;101567.66;;;-0.82;70.96
46583;BME280;32309;48.858;8.252;2023-01-29T03:23:33;101560.88;;;-0.82;70.92
46583;BME280;32309;48.858;8.252;2023-01-29T03:25:54;101565.97;;;-0.82;70.67
46583;BME280;32309;48.858;8.252;2023-01-29T03:28:17;101560.88;;;-0.82;70.63
46583;BME280;32309;48.858;8.252;2023-01-29T03:30:40;101573.59;;;-0.84;71.11
46583;BME280;32309;48.858;8.252;2023-01-29T03:33:04;101569.31;;;-0.85;70.95
46583;BME280;32309;48.858;8.252;2023-01-29T03:35:09;101569.31;;;-0.86;71.20
46583;BME280;32309;48.858;8.252;2023-01-29T03:37:15;101560.03;;;-0.84;71.09
46583;BME280;32309;48.858;8.252;2023-01-29T03:39:23;101571.06;;;-0.82;70.84
46583;BME280;32309;48.858;8.252;2023-01-29T03:41:27;101567.66;;;-0.84;70.77
46583;BME280;32309;48.858;8.252;2023-01-29T03:43:39;101565.94;;;-0.84;70.85
46583;BME280;32309;48.858;8.252;2023-01-29T03:46:05;101568.50;;;-0.84;70.79
46583;BME280;32309;48.858;8.252;2023-01-29T03:48:13;101573.59;;;-0.84;70.80
46583;BME280;32309;48.858;8.252;2023-01-29T03:50:23;101576.09;;;-0.88;70.88
46583;BME280;32309;48.858;8.252;2023-01-29T03:52:32;101573.53;;;-0.90;71.10
46583;BME280;32309;48.858;8.252;2023-01-29T03:57:11;101573.50;;;-0.93;71.53
46583;BME280;32309;48.858;8.252;2023-01-29T04:01:24;101571.75;;;-0.97;71.98
46583;BME280;32309;48.858;8.252;2023-01-29T04:03:35;101578.53;;;-0.97;72.48
46583;BME280;32309;48.858;8.252;2023-01-29T04:05:38;101574.31;;;-0.94;73.08
46583;BME280;32309;48.858;8.252;2023-01-29T04:07:41;101574.38;;;-0.91;72.64
46583;BME280;32309;48.858;8.252;2023-01-29T04:09:50;101570.13;;;-0.90;72.80
46583;BME280;32309;48.858;8.252;2023-01-29T04:12:01;101576.91;;;-0.91;73.11
46583;BME280;32309;48.858;8.252;2023-01-29T04:14:06;101576.09;;;-0.90;73.25
46583;BME280;32309;48.858;8.252;2023-01-29T04:16:08;101569.31;;;-0.86;73.10
46583;BME280;32309;48.858;8.252;2023-01-29T04:18:15;101564.22;;;-0.88;73.31
46583;BME280;32309;48.858;8.252;2023-01-29T04:20:16;101567.66;;;-0.86;73.18
46583;BME280;32309;48.858;8.252;2023-01-29T04:22:23;101570.19;;;-0.86;73.40
46583;BME280;32309;48.858;8.252;2023-01-29T04:24:29;101567.66;;;-0.86;73.45
46583;BME280;32309;48.858;8.252;2023-01-29T04:31:05;101573.53;;;-0.90;73.05
46583;BME280;32309;48.858;8.252;2023-01-29T04:37:34;101560.75;;;-0.93;73.48
46583;BME280;32309;48.858;8.252;2023-01-29T04:42:03;101567.50;;;-0.98;73.34
46583;BME280;32309;48.858;8.252;2023-01-29T04:51:28;101560.66;;;-1.02;73.49
46583;BME280;32309;48.858;8.252;2023-01-29T04:53:56;101571.66;;;-1.03;73.60
46583;BME280;32309;48.858;8.252;2023-01-29T04:56:27;101569.06;;;-1.09;74.00
46583;BME280;32309;48.858;8.252;2023-01-29T04:58:35;101569.94;;;-1.07;73.65
46583;BME280;32309;48.858;8.252;2023-01-29T05:00:42;101558.09;;;-1.05;73.67
46583;BME280;32309;48.858;8.252;2023-01-29T05:02:45;101571.66;;;-1.06;73.64
46583;BME280;32309;48.858;8.252;2023-01-29T05:04:46;101565.72;;;-1.07;73.69
46583;BME280;32309;48.858;8.252;2023-01-29T05:06:48;101569.09;;;-1.08;73.89
46583;BME280;32309;48.858;8.252;2023-01-29T05:08:50;101582.66;;;-1.06;73.77
46583;BME280;32309;48.858;8.252;2023-01-29T05:10:51;101574.16;;;-1.09;73.71
46583;BME280;32309;48.858;8.252;2023-01-29T05:12:59;101573.28;;;-1.11;73.93
46583;BME280;32309;48.858;8.252;2023-01-29T05:15:03;101587.72;;;-1.09;73.68
46583;BME280;32309;48.858;8.252;2023-01-29T05:17:17;101591.16;;;-1.07;74.10
46583;BME280;32309;48.858;8.252;2023-01-29T05:19:18;101596.19;;;-1.11;73.93
46583;BME280;32309;48.858;8.252;2023-01-29T05:21:19;101589.44;;;-1.08;74.20
46583;BME280;32309;48.858;8.252;2023-01-29T05:23:22;101587.69;;;-1.13;74.25
46583;BME280;32309;48.858;8.252;2023-01-29T05:25:23;101580.91;;;-1.13;74.11
46583;BME280;32309;48.858;8.252;2023-01-29T05:27:28;101565.66;;;-1.11;74.37
46583;BME280;32309;48.858;8.252;2023-01-29T05:29:51;101562.25;;;-1.13;73.99
46583;BME280;32309;48.858;8.252;2023-01-29T05:31:52;101552.03;;;-1.15;74.31
46583;BME280;32309;48.858;8.252;2023-01-29T05:33:52;101544.41;;;-1.15;74.42
46583;BME280;32309;48.858;8.252;2023-01-29T05:35:55;101526.63;;;-1.13;74.05
46583;BME280;32309;48.858;8.252;2023-01-29T05:37:57;101531.75;;;-1.09;74.08
46583;BME280;32309;48.858;8.252;2023-01-29T05:39:57;101532.59;;;-1.10;74.26
46583;BME280;32309;48.858;8.252;2023-01-29T05:41:58;101537.66;;;-1.13;74.06
46583;BME280;32309;48.858;8.252;2023-01-29T05:43:58;101550.38;;;-1.11;73.94
46583;BME280;32309;48.858;8.252;2023-01-29T05:45:59;101554.66;;;-1.09;74.05
46583;BME280;32309;48.858;8.252;2023-01-29T05:48:02;101540.19;;;-1.11;73.86
46583;BME280;32309;48.858;8.252;2023-01-29T05:50:02;101534.28;;;-1.09;74.48
46583;BME280;32309;48.858;8.252;2023-01-29T05:52:02;101533.47;;;-1.06;73.54
46583;BME280;32309;48.858;8.252;2023-01-29T05:54:03;101551.28;;;-1.08;73.62
46583;BME280;32309;48.858;8.252;2023-01-29T05:56:04;101554.63;;;-1.10;73.64
46583;BME280;32309;48.858;8.252;2023-01-29T05:58:04;101552.09;;;-1.12;73.71
46583;BME280;32309;48.858;8.252;2023-01-29T06:00:05;101549.53;;;-1.13;73.52
46583;BME280;32309;48.858;8.252;2023-01-29T06:02:06;101549.53;;;-1.13;73.61
46583;BME280;32309;48.858;8.252;2023-01-29T06:04:07;101563.94;;;-1.12;74.06
46583;BME280;32309;48.858;8.252;2023-01-29T06:06:07;101565.63;;;-1.13;74.05
46583;BME280;32309;48.858;8.252;2023-01-29T06:08:08;101577.50;;;-1.13;73.93
46583;BME280;32309;48.858;8.252;2023-01-29T06:10:08;101574.09;;;-1.15;73.88
46583;BME280;32309;48.858;8.252;2023-01-29T06:12:09;101574.09;;;-1.15;74.20
46583;BME280;32309;48.858;8.252;2023-01-29T06:14:09;101583.38;;;-1.18;74.00
46583;BME280;32309;48.858;8.252;2023-01-29T06:16:10;101584.25;;;-1.17;73.79
46583;BME280;32309;48.858;8.252;2023-01-29T06:18:11;101590.19;;;-1.17;73.71
46583;BME280;32309;48.858;8.252;2023-01-29T06:20:11;101593.59;;;-1.14;73.57
46583;BME280;32309;48.858;8.252;2023-01-29T06:22:12;101591.09;;;-1.13;73.22
46583;BME280;32309;48.858;8.252;2023-01-29T06:24:12;101592.78;;;-1.13;73.55
46583;BME280;32309;48.858;8.252;2023-01-29T06:26:13;101594.44;;;-1.14;72.91
46583;BME280;32309;48.858;8.252;2023-01-29T06:28:14;101583.44;;;-1.14;73.29
46583;BME280;32309;48.858;8.252;2023-01-29T06:30:14;101586.03;;;-1.10;73.34
46583;BME280;32309;48.858;8.252;2023-01-29T06:32:14;101583.47;;;-1.10;73.16
46583;BME280;32309;48.858;8.252;2023-01-29T06:34:15;101569.91;;;-1.12;73.04
46583;BME280;32309;48.858;8.252;2023-01-29T06:36:15;101579.19;;;-1.14;73.22
46583;BME280;32309;48.858;8.252;2023-01-29T06:38:16;101574.09;;;-1.15;72.97
46583;BME280;32309;48.858;8.252;2023-01-29T06:40:16;101572.38;;;-1.17;73.25
46583;BME280;32309;48.858;8.252;2023-01-29T06:42:16;101577.47;;;-1.15;73.03
46583;BME280;32309;48.858;8.252;2023-01-29T06:44:17;101574.91;;;-1.17;72.91
46583;BME280;32309;48.858;8.252;2023-01-29T06:46:17;101567.28;;;-1.17;73.00
46583;BME280;32309;48.858;8.252;2023-01-29T06:48:18;101577.44;;;-1.18;72.87
46583;BME280;32309;48.858;8.252;2023-01-29T06:50:18;101574.06;;;-1.17;73.10
46583;BME280;32309;48.858;8.252;2023-01-29T06:52:18;101570.66;;;-1.18;73.26
46583;BME280;32309;48.858;8.252;2023-01-29T06:54:19;101566.38;;;-1.20;73.14
46583;BME280;32309;48.858;8.252;2023-01-29T06:56:19;101564.69;;;-1.21;73.14
46583;BME280;32309;48.858;8.252;2023-01-29T06:58:19;101563.81;;;-1.25;73.43
46583;BME280;32309;48.858;8.252;2023-01-29T07:00:20;101563.81;;;-1.22;73.64
46583;BME280;32309;48.858;8.252;2023-01-29T07:02:20;101563.00;;;-1.19;73.42
46583;BME280;32309;48.858;8.252;2023-01-29T07:04:21;101554.53;;;-1.20;73.79
46583;BME280;32309;48.858;8.252;2023-01-29T07:06:25;101560.53;;;-1.14;73.89
46583;BME280;32309;48.858;8.252;2023-01-29T07:08:27;101571.53;;;-1.15;73.84
46583;BME280;32309;48.858;8.252;2023-01-29T07:10:27;101575.78;;;-1.16;74.26
46583;BME280;32309;48.858;8.252;2023-01-29T07:12:27;101574.94;;;-1.15;74.26
46583;BME280;32309;48.858;8.252;2023-01-29T07:14:28;101578.28;;;-1.18;73.81
46583;BME280;32309;48.858;8.252;2023-01-29T07:16:28;101582.50;;;-1.21;74.11
46583;BME280;32309;48.858;8.252;2023-01-29T07:18:28;101585.91;;;-1.21;74.34
46583;BME280;32309;48.858;8.252;2023-01-29T07:20:30;101591.81;;;-1.20;74.51
46583;BME280;32309;48.858;8.252;2023-01-29T07:22:30;101585.06;;;-1.21;75.19
46583;BME280;32309;48.858;8.252;2023-01-29T07:24:31;101585.00;;;-1.24;74.89
46583;BME280;32309;48.858;8.252;2023-01-29T07:26:31;101595.22;;;-1.23;74.85
46583;BME280;32309;48.858;8.252;2023-01-29T07:28:35;101593.47;;;-1.25;75.30
46583;BME280;32309;48.858;8.252;2023-01-29T07:30:37;101601.16;;;-1.21;75.05
46583;BME280;32309;48.858;8.252;2023-01-29T07:32:37;101601.97;;;-1.23;75.14
46583;BME280;32309;48.858;8.252;2023-01-29T07:34:37;101602.88;;;-1.21;75.09
46583;BME280;32309;48.858;8.252;2023-01-29T07:36:37;101604.59;;;-1.19;75.23
46583;BME280;32309;48.858;8.252;2023-01-29T07:38:37;101604.53;;;-1.22;75.22
46583;BME280;32309;48.858;8.252;2023-01-29T07:40:38;101600.34;;;-1.20;75.24
46583;BME280;32309;48.858;8.252;2023-01-29T07:42:38;101596.91;;;-1.22;75.23
46583;BME280;32309;48.858;8.252;2023-01-29T07:44:39;101594.38;;;-1.20;75.61
46583;BME280;32309;48.858;8.252;2023-01-29T07:46:39;101599.53;;;-1.15;75.75
46583;BME280;32309;48.858;8.252;2023-01-29T07:48:39;101594.44;;;-1.14;75.67
46583;BME280;32309;48.858;8.252;2023-01-29T07:50:40;101602.97;;;-1.12;75.26
46583;BME280;32309;48.858;8.252;2023-01-29T07:52:40;101599.63;;;-1.08;75.55
46583;BME280;32309;48.858;8.252;2023-01-29T07:54:40;101608.13;;;-1.06;75.36
46583;BME280;32309;48.858;8.252;2023-01-29T07:56:40;101615.00;;;-0.98;75.03
46583;BME280;32309;48.858;8.252;2023-01-29T07:58:41;101624.28;;;-1.02;74.91
46583;BME280;32309;48.858;8.252;2023-01-29T08:00:41;101632.72;;;-1.05;75.28
46583;BME280;32309;48.858;8.252;2023-01-29T08:02:42;101634.44;;;-1.05;75.45
46583;BME280;32309;48.858;8.252;2023-01-29T08:04:42;101631.06;;;-1.03;75.46
46583;BME280;32309;48.858;8.252;2023-01-29T08:06:43;101637.00;;;-1.04;75.48
46583;BME280;32309;48.858;8.252;2023-01-29T08:08:43;101637.88;;;-1.02;75.59
46583;BME280;32309;48.858;8.252;2023-01-29T08:10:43;101648.91;;;-0.99;75.73
46583;BME280;32309;48.858;8.252;2023-01-29T08:12:43;101639.63;;;-0.99;75.77
46583;BME280;32309;48.858;8.252;2023-01-29T08:14:44;101639.63;;;-0.97;75.69
46583;BME280;32309;48.858;8.252;2023-01-29T08:16:44;101637.09;;;-0.97;75.59
46583;BME280;32309;48.858;8.252;2023-01-29T08:18:44;101640.56;;;-0.91;75.17
46583;BME280;32309;48.858;8.252;2023-01-29T08:20:47;101631.22;;;-0.90;74.87
46583;BME280;32309;48.858;8.252;2023-01-29T08:22:47;101643.91;;;-0.93;75.04
46583;BME280;32309;48.858;8.252;2023-01-29T08:24:48;101639.66;;;-0.94;74.96
46583;BME280;32309;48.858;8.252;2023-01-29T08:26:48;101637.94;;;-0.95;75.15
46583;BME280;32309;48.858;8.252;2023-01-29T08:28:48;101641.38;;;-0.92;75.08
46583;BME280;32309;48.858;8.252;2023-01-29T08:30:48;101638.75;;;-0.96;75.33
46583;BME280;32309;48.858;8.252;2023-01-29T08:32:49;101637.94;;;-0.95;75.74
46583;BME280;32309;48.858;8.252;2023-01-29T08:34:49;101643.03;;;-0.94;75.44
46583;BME280;32309;48.858;8.252;2023-01-29T08:36:49;101648.13;;;-0.95;75.42
46583;BME280;32309;48.858;8.252;2023-01-29T08:38:49;101649.00;;;-0.95;75.61
46583;BME280;32309;48.858;8.252;2023-01-29T08:40:50;101639.66;;;-0.93;75.71
46583;BME280;32309;48.858;8.252;2023-01-29T08:43:00;101648.22;;;-0.88;75.64
46583;BME280;32309;48.858;8.252;2023-01-29T08:45:01;101640.66;;;-0.83;75.41
46583;BME280;32309;48.858;8.252;2023-01-29T08:47:01;101643.19;;;-0.83;75.27
46583;BME280;32309;48.858;8.252;2023-01-29T08:49:02;101641.50;;;-0.81;75.43
46583;BME280;32309;48.858;8.252;2023-01-29T08:51:03;101648.34;;;-0.77;75.35
46583;BME280;32309;48.858;8.252;2023-01-29T08:53:04;101650.97;;;-0.69;74.70
46583;BME280;32309;48.858;8.252;2023-01-29T08:55:07;101647.59;;;-0.70;74.50
46583;BME280;32309;48.858;8.252;2023-01-29T08:57:07;101648.41;;;-0.71;74.55
46583;BME280;32309;48.858;8.252;2023-01-29T08:59:08;101648.41;;;-0.72;74.69
46583;BME280;32309;48.858;8.252;2023-01-29T09:01:10;101649.25;;;-0.72;75.13
46583;BME280;32309;48.858;8.252;2023-01-29T09:03:10;101640.78;;;-0.68;74.88
46583;BME280;32309;48.858;8.252;2023-01-29T09:05:10;101628.94;;;-0.69;74.86
46583;BME280;32309;48.858;8.252;2023-01-29T09:07:11;101635.75;;;-0.66;74.89
46583;BME280;32309;48.858;8.252;2023-01-29T09:09:11;101630.69;;;-0.61;75.11
46583;BME280;32309;48.858;8.252;2023-01-29T09:11:13;101634.13;;;-0.59;74.84
46583;BME280;32309;48.858;8.252;2023-01-29T09:13:13;101634.13;;;-0.58;74.58
46583;BME280;32309;48.858;8.252;2023-01-29T09:15:14;101624.78;;;-0.56;74.41
46583;BME280;32309;48.858;8.252;2023-01-29T09:17:14;101631.59;;;-0.56;74.29
46583;BME280;32309;48.858;8.252;2023-01-29T09:19:14;101640.06;;;-0.56;74.09
46583;BME280;32309;48.858;8.252;2023-01-29T09:21:14;101645.22;;;-0.53;74.14
46583;BME280;32309;48.858;8.252;2023-01-29T09:23:15;101647.78;;;-0.49;74.36
46583;BME280;32309;48.858;8.252;2023-01-29T09:25:15;101647.81;;;-0.48;74.19
46583;BME280;32309;48.858;8.252;2023-01-29T09:27:15;101650.34;;;-0.46;74.10
46583;BME280;32309;48.858;8.252;2023-01-29T09:29:16;101662.28;;;-0.42;74.43
46583;BME280;32309;48.858;8.252;2023-01-29T09:31:16;101670.00;;;-0.36;74.31
46583;BME280;32309;48.858;8.252;2023-01-29T09:33:16;101663.25;;;-0.32;74.10
46583;BME280;32309;48.858;8.252;2023-01-29T09:35:17;101652.25;;;-0.27;73.41
46583;BME280;32309;48.858;8.252;2023-01-29T09:37:17;101642.94;;;-0.26;72.80
46583;BME280;32309;48.858;8.252;2023-01-29T09:39:17;101641.22;;;-0.27;72.76
46583;BME280;32309;48.858;8.252;2023-01-29T09:41:22;101637.84;;;-0.26;72.68
46583;BME280;32309;48.858;8.252;2023-01-29T09:43:44;101625.94;;;-0.24;72.13
46583;BME280;32309;48.858;8.252;2023-01-29T09:45:52;101605.56;;;-0.24;72.02
46583;BME280;32309;48.858;8.252;2023-01-29T09:48:01;101598.75;;;-0.25;71.71
46583;BME280;32309;48.858;8.252;2023-01-29T09:50:05;101588.56;;;-0.25;72.45
46583;BME280;32309;48.858;8.252;2023-01-29T09:52:19;101583.50;;;-0.24;72.08
46583;BME280;32309;48.858;8.252;2023-01-29T09:54:24;101589.47;;;-0.19;72.39
46583;BME280;32309;48.858;8.252;2023-01-29T09:56:31;101577.63;;;-0.15;72.25
46583;BME280;32309;48.858;8.252;2023-01-29T09:58:35;101583.59;;;-0.13;71.50
46583;BME280;32309;48.858;8.252;2023-01-29T10:05:19;101589.66;;;0.03;72.40
46583;BME280;32309;48.858;8.252;2023-01-29T10:19:36;101592.31;;;0.19;70.56
46583;BME280;32309;48.858;8.252;2023-01-29T10:26:35;101589.84;;;0.29;71.56
46583;BME280;32309;48.858;8.252;2023-01-29T10:28:41;101590.69;;;0.30;70.74
46583;BME280;32309;48.858;8.252;2023-01-29T10:30:49;101591.56;;;0.37;72.06
46583;BME280;32309;48.858;8.252;2023-01-29T10:32:50;101594.16;;;0.41;71.66
46583;BME280;32309;48.858;8.252;2023-01-29T10:34:55;101600.09;;;0.43;71.29
46583;BME280;32309;48.858;8.252;2023-01-29T10:37:05;101602.66;;;0.45;70.08
46583;BME280;32309;48.858;8.252;2023-01-29T10:39:18;101596.75;;;0.51;71.21
46583;BME280;32309;48.858;8.252;2023-01-29T10:43:35;101596.81;;;0.60;70.75
46583;BME280;32309;48.858;8.252;2023-01-29T10:45:48;101601.94;;;0.66;71.82
46583;BME280;32309;48.858;8.252;2023-01-29T10:50:34;101611.31;;;0.73;70.39
46583;BME280;32309;48.858;8.252;2023-01-29T10:52:44;101604.50;;;0.68;68.53
46583;BME280;32309;48.858;8.252;2023-01-29T11:01:56;101614.75;;;0.83;68.91
46583;BME280;32309;48.858;8.252;2023-01-29T11:04:02;101608.81;;;0.79;68.65
46583;BME280;32309;48.858;8.252;2023-01-29T11:08:20;101595.19;;;0.77;68.76
46583;BME280;32309;48.858;8.252;2023-01-29T11:10:23;101593.47;;;0.78;69.50
46583;BME280;32309;48.858;8.252;2023-01-29T11:12:27;101583.28;;;0.79;69.09
46583;BME280;32309;48.858;8.252;2023-01-29T11:16:42;101579.88;;;0.80;68.00
46583;BME280;32309;48.858;8.252;2023-01-29T11:18:48;101571.41;;;0.85;68.43
46583;BME280;32309;48.858;8.252;2023-01-29T11:21:01;101567.13;;;0.87;68.28
46583;BME280;32309;48.858;8.252;2023-01-29T11:23:03;101559.47;;;0.82;67.66
46583;BME280;32309;48.858;8.252;2023-01-29T11:27:21;101562.91;;;0.87;67.71
46583;BME280;32309;48.858;8.252;2023-01-29T11:31:34;101558.66;;;0.94;66.27
46583;BME280;32309;48.858;8.252;2023-01-29T11:33:36;101551.00;;;1.00;69.08
46583;BME280;32309;48.858;8.252;2023-01-29T11:35:37;101545.91;;;0.98;66.65
46583;BME280;32309;48.858;8.252;2023-01-29T11:37:38;101545.06;;;1.01;68.45
46583;BME280;32309;48.858;8.252;2023-01-29T11:39:43;101550.16;;;0.99;66.39
46583;BME280;32309;48.858;8.252;2023-01-29T11:41:47;101545.91;;;1.02;66.10
46583;BME280;32309;48.858;8.252;2023-01-29T11:43:57;101533.16;;;1.06;65.98
46583;BME280;32309;48.858;8.252;2023-01-29T11:46:05;101527.22;;;1.07;65.64
46583;BME280;32309;48.858;8.252;2023-01-29T11:48:16;101533.19;;;1.12;67.98
46583;BME280;32309;48.858;8.252;2023-01-29T11:50:23;101538.25;;;1.09;65.43
46583;BME280;32309;48.858;8.252;2023-01-29T11:52:35;101528.94;;;1.08;65.40
46583;BME280;32309;48.858;8.252;2023-01-29T11:54:43;101530.59;;;1.11;65.46
46583;BME280;32309;48.858;8.252;2023-01-29T11:56:50;101528.06;;;1.15;65.76
46583;BME280;32309;48.858;8.252;2023-01-29T11:58:50;101522.97;;;1.19;65.62
46583;BME280;32309;48.858;8.252;2023-01-29T12:00:54;101513.59;;;1.22;66.42
46583;BME280;32309;48.858;8.252;2023-01-29T12:03:00;101516.16;;;1.25;66.10
46583;BME280;32309;48.858;8.252;2023-01-29T12:05:13;101510.19;;;1.26;65.48
46583;BME280;32309;48.858;8.252;2023-01-29T12:07:16;101493.19;;;1.28;68.67
46583;BME280;32309;48.858;8.252;2023-01-29T12:09:21;101488.94;;;1.26;65.96